METAR Formatted Surface Weather Observation
Issued by NWS

Home | Current Version | Previous Version | Text Only | Print | Product List | Glossary On
Versions: 1 2 3 4 5 6 7 8
000
SAUS46 KSEW 301500
MTRSMP
METAR KSMP 301456Z AUTO 24007KT 210V270 10SM CLR 14/06 A3022 RMK AO2
SLP208 T01390061 51003 $



USA.gov is the U.S. government's official web portal to all federal, state and local government web resources and services.